Time;durP1;ratioP1;P1;durP2;ratioP2;P2;SDS_P1;SDS_P2;PMS_P1;PMS_P2;Temp;Humidity;BMP_temperature;BMP_pressure;BME280_temperature;BME280_humidity;BME280_pressure;Samples;Min_cycle;Max_cycle;Signal;HPM_P1;HPM_P2
2023/12/09 00:01:20;;;;;;;15.30;7.47;;;6.00;99.90;;;;;;4989185;28;20030;-75
2023/12/09 00:03:45;;;;;;;15.18;7.40;;;6.00;99.90;;;;;;4987717;28;20034;-74
2023/12/09 00:06:11;;;;;;;15.18;7.53;;;6.00;99.90;;;;;;4988029;28;20031;-73
2023/12/09 00:08:37;;;;;;;17.33;6.53;;;6.00;99.90;;;;;;4988269;28;20126;-73
2023/12/09 00:11:02;;;;;;;13.13;5.78;;;6.00;99.90;;;;;;4988649;28;20039;-74
2023/12/09 00:13:28;;;;;;;13.82;5.93;;;6.00;99.90;;;;;;4988481;28;20037;-76
2023/12/09 00:15:54;;;;;;;11.40;6.13;;;6.00;99.90;;;;;;4987028;28;20747;-74
2023/12/09 00:18:19;;;;;;;17.40;6.95;;;6.00;99.90;;;;;;4988804;28;20078;-74
2023/12/09 00:20:45;;;;;;;15.48;6.13;;;6.00;99.90;;;;;;4985906;28;20026;-75
2023/12/09 00:23:11;;;;;;;16.55;7.15;;;6.00;99.90;;;;;;4989116;28;20043;-74
2023/12/09 00:25:36;;;;;;;16.10;7.03;;;6.10;99.90;;;;;;4988679;28;20034;-75
2023/12/09 00:28:02;;;;;;;12.13;6.25;;;6.00;99.90;;;;;;4989000;28;20114;-73
2023/12/09 00:30:28;;;;;;;14.70;5.63;;;6.00;99.90;;;;;;4990558;28;20041;-74
2023/12/09 00:32:54;;;;;;;14.20;5.50;;;6.00;99.90;;;;;;5006338;28;20508;-73
2023/12/09 00:35:19;;;;;;;13.32;5.00;;;6.10;99.90;;;;;;4992383;28;20080;-74
2023/12/09 00:37:45;;;;;;;9.00;4.50;;;6.00;99.90;;;;;;4990419;28;20432;-73
2023/12/09 00:40:11;;;;;;;11.35;4.95;;;6.00;99.90;;;;;;4989440;28;20034;-74
2023/12/09 00:42:37;;;;;;;15.07;4.53;;;6.00;99.90;;;;;;4990653;28;20038;-74
2023/12/09 00:45:04;;;;;;;13.38;4.30;;;6.10;99.90;;;;;;4984605;28;20022;-74
2023/12/09 00:47:29;;;;;;;13.70;3.90;;;6.00;99.90;;;;;;4985563;28;20022;-75
2023/12/09 00:49:55;;;;;;;7.88;3.38;;;6.10;99.90;;;;;;4988576;28;20033;-74
2023/12/09 00:52:21;;;;;;;12.65;4.05;;;6.00;99.90;;;;;;4987487;28;20058;-74
2023/12/09 00:54:47;;;;;;;12.18;4.32;;;6.00;99.90;;;;;;4984869;28;20023;-74
2023/12/09 00:57:12;;;;;;;7.53;4.47;;;6.00;99.90;;;;;;4988350;28;20105;-75
2023/12/09 00:59:38;;;;;;;13.38;4.10;;;6.00;99.90;;;;;;4991044;28;20022;-74
2023/12/09 01:02:04;;;;;;;13.07;4.80;;;6.00;99.90;;;;;;4984676;28;20034;-76
2023/12/09 01:04:29;;;;;;;12.90;4.28;;;6.00;99.90;;;;;;4985075;28;20023;-75
2023/12/09 01:06:56;;;;;;;11.98;4.63;;;6.00;99.90;;;;;;4992160;28;20432;-75
2023/12/09 01:09:22;;;;;;;14.43;4.30;;;6.00;99.90;;;;;;4986471;28;20097;-74
2023/12/09 01:11:47;;;;;;;7.88;3.78;;;6.00;99.90;;;;;;4990355;28;20541;-75
2023/12/09 01:14:13;;;;;;;11.63;3.45;;;6.00;99.90;;;;;;4987910;28;20104;-75
2023/12/09 01:16:38;;;;;;;11.15;3.58;;;6.00;99.90;;;;;;4986626;28;20121;-75
2023/12/09 01:19:04;;;;;;;9.20;3.20;;;6.00;99.90;;;;;;4984037;28;20061;-75
2023/12/09 01:21:30;;;;;;;11.52;4.03;;;6.00;99.90;;;;;;4984372;28;20026;-75
2023/12/09 01:23:55;;;;;;;8.50;2.83;;;6.00;99.90;;;;;;4989893;28;20098;-75
2023/12/09 01:26:21;;;;;;;8.93;2.88;;;6.00;99.90;;;;;;4986616;28;20023;-75
2023/12/09 01:28:46;;;;;;;15.13;3.92;;;6.00;99.90;;;;;;4991596;28;20027;-74
2023/12/09 01:31:12;;;;;;;9.25;2.80;;;6.00;99.90;;;;;;4986072;28;20026;-74
2023/12/09 01:33:38;;;;;;;10.90;4.78;;;6.00;99.90;;;;;;4988334;28;20553;-74
2023/12/09 01:36:04;;;;;;;13.95;7.60;;;5.90;99.90;;;;;;4987585;28;20023;-76
2023/12/09 01:38:29;;;;;;;19.52;8.32;;;6.00;99.90;;;;;;4989210;28;20022;-78
2023/12/09 01:40:55;;;;;;;19.90;9.93;;;6.00;99.90;;;;;;4988749;28;20025;-75
2023/12/09 01:43:22;;;;;;;15.85;8.43;;;6.00;99.90;;;;;;4990159;28;20041;-75
2023/12/09 01:45:49;;;;;;;14.07;8.60;;;6.00;99.90;;;;;;4986684;28;20097;-75
2023/12/09 01:48:16;;;;;;;11.68;7.43;;;6.00;99.90;;;;;;4982542;28;20030;-74
2023/12/09 01:50:42;;;;;;;15.48;7.13;;;6.00;99.90;;;;;;4991411;28;20026;-75
2023/12/09 01:53:08;;;;;;;14.57;7.22;;;6.00;99.90;;;;;;4985628;28;20417;-74
2023/12/09 01:55:34;;;;;;;14.60;6.78;;;6.00;99.90;;;;;;4985174;28;20033;-74
2023/12/09 01:57:59;;;;;;;11.60;7.05;;;6.00;99.90;;;;;;4986647;28;20126;-75
2023/12/09 02:00:25;;;;;;;9.32;4.78;;;6.00;99.90;;;;;;4983001;28;20034;-74
2023/12/09 02:02:51;;;;;;;11.05;5.72;;;6.00;99.90;;;;;;4984988;28;20059;-74
2023/12/09 02:05:17;;;;;;;10.23;5.75;;;6.00;99.90;;;;;;4985699;28;20109;-74
2023/12/09 02:07:42;;;;;;;12.68;5.50;;;6.00;99.90;;;;;;4986850;28;20557;-74
2023/12/09 02:10:09;;;;;;;13.52;6.05;;;6.00;99.90;;;;;;4988261;28;20025;-74
2023/12/09 02:12:48;;;;;;;12.68;6.47;;;6.00;99.90;;;;;;4988262;28;20056;-75
2023/12/09 02:15:30;;;;;;;19.35;7.68;;;6.00;99.90;;;;;;4988797;28;20026;-74
2023/12/09 02:17:58;;;;;;;12.07;5.63;;;6.00;99.90;;;;;;4984262;28;20544;-75
2023/12/09 02:20:25;;;;;;;15.63;5.47;;;6.00;99.90;;;;;;4988665;28;20038;-75
2023/12/09 02:23:03;;;;;;;13.07;5.70;;;6.00;99.90;;;;;;4988715;28;20026;-77
2023/12/09 02:25:28;;;;;;;14.85;4.15;;;6.00;99.90;;;;;;4990170;28;20053;-74
2023/12/09 02:27:59;;;;;;;12.80;3.72;;;6.00;99.90;;;;;;4985500;28;20026;-78
2023/12/09 02:30:34;;;;;;;8.27;3.47;;;5.90;99.90;;;;;;4982736;28;20088;-74
2023/12/09 02:33:00;;;;;;;8.32;3.45;;;6.00;99.90;;;;;;4987336;28;20038;-76
2023/12/09 02:35:29;;;;;;;11.43;3.58;;;6.00;99.90;;;;;;4984488;28;20027;-76
2023/12/09 02:37:56;;;;;;;8.88;3.00;;;5.90;99.90;;;;;;4992933;28;20022;-78
2023/12/09 02:40:23;;;;;;;6.38;2.45;;;5.90;99.90;;;;;;4991480;28;20026;-75
2023/12/09 02:42:50;;;;;;;7.93;2.83;;;5.90;99.90;;;;;;4990692;28;20019;-74
2023/12/09 02:45:19;;;;;;;13.38;3.33;;;5.90;99.90;;;;;;4995002;28;20038;-74
2023/12/09 02:47:47;;;;;;;7.57;3.15;;;5.90;99.90;;;;;;4993844;28;20113;-74
2023/12/09 02:50:13;;;;;;;5.63;3.20;;;5.90;99.90;;;;;;4995240;28;20049;-75
2023/12/09 02:52:40;;;;;;;5.90;2.92;;;5.90;99.90;;;;;;4994557;28;20026;-75
2023/12/09 02:55:07;;;;;;;9.13;2.83;;;6.00;99.90;;;;;;4994938;28;20378;-74
2023/12/09 02:57:33;;;;;;;7.75;2.88;;;6.00;99.90;;;;;;4994836;28;20025;-75
2023/12/09 02:59:59;;;;;;;9.23;3.42;;;6.00;99.90;;;;;;4994835;28;20030;-75
2023/12/09 03:02:24;;;;;;;10.13;2.47;;;6.00;99.90;;;;;;4990352;28;20101;-76
2023/12/09 03:04:50;;;;;;;8.77;2.60;;;6.00;99.90;;;;;;4986622;28;20029;-75
2023/12/09 03:07:20;;;;;;;5.43;2.70;;;6.00;99.90;;;;;;4994468;28;20022;-74
2023/12/09 03:09:46;;;;;;;8.18;2.80;;;6.00;99.90;;;;;;4992880;28;20444;-74
2023/12/09 03:12:12;;;;;;;9.65;3.20;;;6.00;99.90;;;;;;4993104;28;20378;-75
2023/12/09 03:14:38;;;;;;;8.30;2.28;;;6.00;99.90;;;;;;4994933;28;20029;-74
2023/12/09 03:17:04;;;;;;;9.20;2.45;;;6.00;99.90;;;;;;4994924;28;20030;-74
2023/12/09 03:19:29;;;;;;;5.18;2.15;;;6.00;99.90;;;;;;4995117;28;20419;-75
2023/12/09 03:21:55;;;;;;;7.32;2.47;;;6.10;99.90;;;;;;4994717;28;20030;-77
2023/12/09 03:24:21;;;;;;;9.63;2.65;;;6.10;99.90;;;;;;4993143;28;20027;-75
2023/12/09 03:26:50;;;;;;;11.77;3.15;;;6.10;99.90;;;;;;4992319;28;20045;-75
2023/12/09 03:29:16;;;;;;;7.28;2.70;;;6.10;99.90;;;;;;4994439;28;20085;-75
2023/12/09 03:31:42;;;;;;;5.80;2.00;;;6.10;99.90;;;;;;4989689;28;20425;-75
2023/12/09 03:34:08;;;;;;;6.65;2.45;;;6.10;99.90;;;;;;4993871;28;20030;-74
2023/12/09 03:36:33;;;;;;;6.75;2.50;;;6.10;99.90;;;;;;4991145;28;20073;-75
2023/12/09 03:38:59;;;;;;;9.45;2.20;;;6.10;99.90;;;;;;4994087;28;20105;-75
2023/12/09 03:41:24;;;;;;;6.30;2.47;;;6.10;99.90;;;;;;4990121;28;20018;-75
2023/12/09 03:43:50;;;;;;;11.60;2.03;;;6.10;99.90;;;;;;4995672;28;20022;-74
2023/12/09 03:46:15;;;;;;;6.72;2.63;;;6.10;99.90;;;;;;4994833;28;20041;-76
2023/12/09 03:48:41;;;;;;;7.03;2.58;;;6.10;99.90;;;;;;5002202;23;20047;-81
2023/12/09 03:51:07;;;;;;;8.50;2.67;;;6.20;99.90;;;;;;4960490;28;20030;-81
2023/12/09 03:53:32;;;;;;;8.40;2.92;;;6.10;99.90;;;;;;4978780;28;20105;-80
2023/12/09 03:55:58;;;;;;;8.30;3.25;;;6.10;99.90;;;;;;4972361;28;20026;-81
2023/12/09 03:58:23;;;;;;;6.93;3.05;;;6.10;99.90;;;;;;4977860;28;20562;-81
2023/12/09 04:00:51;;;;;;;6.82;3.38;;;6.00;99.90;;;;;;4974338;28;20071;-82
2023/12/09 04:03:17;;;;;;;6.38;2.88;;;6.00;99.90;;;;;;4976310;28;20060;-81
2023/12/09 04:05:42;;;;;;;7.63;3.25;;;6.00;99.90;;;;;;4975256;28;20073;-82
2023/12/09 04:08:08;;;;;;;8.35;4.13;;;5.90;99.90;;;;;;4972095;28;20115;-81
2023/12/09 04:10:34;;;;;;;10.13;4.15;;;5.90;99.90;;;;;;4973381;28;20031;-81
2023/12/09 04:12:59;;;;;;;7.00;3.60;;;5.90;99.90;;;;;;4974546;28;20058;-82
2023/12/09 04:15:27;;;;;;;7.07;3.80;;;5.90;99.90;;;;;;4977896;28;20094;-81
2023/12/09 04:17:53;;;;;;;6.10;3.30;;;5.90;99.90;;;;;;4960581;28;20122;-81
2023/12/09 04:20:19;;;;;;;5.68;2.80;;;5.80;99.90;;;;;;4973985;28;20049;-81
2023/12/09 04:22:44;;;;;;;8.23;2.88;;;5.80;99.90;;;;;;4977439;28;20034;-82
2023/12/09 04:25:10;;;;;;;7.22;2.90;;;5.70;99.90;;;;;;4974158;28;20031;-82
2023/12/09 04:27:35;;;;;;;6.90;2.85;;;5.70;99.90;;;;;;4977819;28;20038;-82
2023/12/09 04:30:01;;;;;;;5.75;2.63;;;5.70;99.90;;;;;;4977419;28;20039;-81
2023/12/09 04:32:29;;;;;;;4.43;2.28;;;5.70;99.90;;;;;;4971297;28;20035;-81
2023/12/09 04:34:55;;;;;;;8.48;2.78;;;5.70;99.90;;;;;;4973350;28;20038;-81
2023/12/09 04:37:22;;;;;;;4.72;2.30;;;5.60;99.90;;;;;;4974623;28;20022;-81
2023/12/09 04:39:48;;;;;;;4.93;2.30;;;5.60;99.90;;;;;;4975521;28;20023;-81
2023/12/09 04:42:13;;;;;;;7.88;2.30;;;5.60;99.90;;;;;;4972959;28;20372;-81
2023/12/09 04:44:39;;;;;;;4.97;2.53;;;5.60;99.90;;;;;;4976466;28;20403;-82
2023/12/09 04:47:06;;;;;;;5.57;2.22;;;5.70;99.90;;;;;;4975393;28;20030;-81
2023/12/09 04:49:32;;;;;;;5.28;2.17;;;5.70;99.90;;;;;;4968569;28;20033;-81
2023/12/09 04:51:57;;;;;;;4.78;1.98;;;5.70;99.90;;;;;;4974698;28;20396;-81
2023/12/09 04:54:23;;;;;;;4.75;2.15;;;5.70;99.90;;;;;;4972713;28;20038;-81
2023/12/09 04:56:48;;;;;;;6.00;2.80;;;5.80;99.90;;;;;;4973508;28;20122;-80
2023/12/09 04:59:14;;;;;;;2.92;1.58;;;5.80;99.90;;;;;;4973456;28;20411;-80
2023/12/09 05:01:40;;;;;;;5.25;2.08;;;5.80;99.90;;;;;;4973834;28;20604;-80
2023/12/09 05:04:07;;;;;;;4.50;1.83;;;5.80;99.90;;;;;;4969726;28;20027;-81
2023/12/09 05:06:32;;;;;;;3.40;1.90;;;5.80;99.90;;;;;;4968253;28;20518;-81
2023/12/09 05:08:58;;;;;;;4.38;1.92;;;5.80;99.90;;;;;;4971433;28;20062;-81
2023/12/09 05:11:24;;;;;;;4.03;1.83;;;5.80;99.90;;;;;;4974278;28;20379;-81
2023/12/09 05:13:49;;;;;;;5.95;1.90;;;5.80;99.90;;;;;;4972407;28;20042;-80
2023/12/09 05:16:15;;;;;;;6.03;1.90;;;5.80;99.90;;;;;;4972319;28;20027;-80
2023/12/09 05:18:41;;;;;;;4.88;1.73;;;5.80;99.90;;;;;;4970639;28;20027;-80
2023/12/09 05:21:06;;;;;;;3.08;1.77;;;5.80;99.90;;;;;;4978809;28;20038;-80
2023/12/09 05:23:33;;;;;;;5.25;2.55;;;5.80;99.90;;;;;;4973016;28;20082;-81
2023/12/09 05:25:58;;;;;;;4.00;2.05;;;5.70;99.90;;;;;;4974191;28;20066;-81
2023/12/09 05:28:24;;;;;;;4.60;2.60;;;5.70;99.90;;;;;;4972959;28;20022;-81
2023/12/09 05:30:50;;;;;;;5.97;2.30;;;5.60;99.90;;;;;;4976599;28;20038;-81
2023/12/09 05:33:15;;;;;;;3.47;2.10;;;5.60;99.90;;;;;;4975510;28;20457;-80
2023/12/09 05:35:41;;;;;;;4.03;2.05;;;5.60;99.90;;;;;;4972829;28;20120;-80
2023/12/09 05:38:07;;;;;;;6.70;2.13;;;5.60;99.90;;;;;;4971132;28;20512;-81
2023/12/09 05:40:32;;;;;;;3.90;2.03;;;5.50;99.90;;;;;;4973203;28;20026;-81
2023/12/09 05:42:58;;;;;;;4.70;2.20;;;5.40;99.90;;;;;;4971569;28;20631;-80
2023/12/09 05:45:24;;;;;;;4.82;1.67;;;5.40;99.90;;;;;;4971620;28;20456;-81
2023/12/09 05:47:49;;;;;;;5.20;2.10;;;5.40;99.90;;;;;;4974500;28;20035;-81
2023/12/09 05:50:15;;;;;;;6.25;2.20;;;5.40;99.90;;;;;;4972915;28;20073;-82
2023/12/09 05:52:43;;;;;;;5.63;2.00;;;5.30;99.90;;;;;;4972481;28;20085;-81
2023/12/09 05:55:09;;;;;;;3.35;1.75;;;5.30;99.90;;;;;;4971379;28;20031;-82
2023/12/09 05:57:34;;;;;;;4.68;1.77;;;5.30;99.90;;;;;;4971089;28;20077;-82
2023/12/09 06:00:00;;;;;;;5.55;2.00;;;5.30;99.90;;;;;;4967855;28;20515;-81
2023/12/09 06:02:26;;;;;;;4.40;2.08;;;5.30;99.90;;;;;;4970614;28;20050;-81
2023/12/09 06:04:51;;;;;;;3.70;1.73;;;5.20;99.90;;;;;;4971644;28;20034;-81
2023/12/09 06:07:17;;;;;;;5.45;2.38;;;5.20;99.90;;;;;;4974769;28;20041;-80
2023/12/09 06:09:43;;;;;;;3.75;2.10;;;5.30;99.90;;;;;;4971088;28;20085;-81
2023/12/09 06:12:08;;;;;;;4.50;1.80;;;5.30;99.90;;;;;;4973482;28;20043;-82
2023/12/09 06:14:34;;;;;;;3.65;1.60;;;5.30;99.90;;;;;;4971570;28;20053;-81
2023/12/09 06:17:00;;;;;;;2.80;1.60;;;5.30;99.90;;;;;;4975966;28;20041;-80
2023/12/09 06:19:25;;;;;;;3.65;1.50;;;5.30;99.90;;;;;;4973818;28;20030;-80
2023/12/09 06:21:51;;;;;;;3.67;1.35;;;5.30;99.90;;;;;;4974985;28;20022;-81
2023/12/09 06:24:16;;;;;;;3.75;1.25;;;5.30;99.90;;;;;;4970093;28;20027;-81
2023/12/09 06:26:44;;;;;;;2.85;1.95;;;5.30;99.90;;;;;;4974289;28;20043;-80
2023/12/09 06:29:13;;;;;;;4.10;1.60;;;5.30;99.90;;;;;;4986069;28;20037;-81
2023/12/09 06:31:39;;;;;;;2.53;1.02;;;5.30;99.90;;;;;;4974179;28;20106;-81
2023/12/09 06:34:04;;;;;;;2.67;1.08;;;5.30;99.90;;;;;;4969807;28;20059;-80
2023/12/09 06:36:30;;;;;;;3.55;1.23;;;5.30;99.90;;;;;;4972514;28;20050;-81
2023/12/09 06:38:56;;;;;;;3.97;1.30;;;5.30;99.90;;;;;;4975687;28;20172;-81
2023/12/09 06:41:21;;;;;;;4.53;1.38;;;5.30;99.90;;;;;;4975147;28;20507;-79
2023/12/09 06:43:47;;;;;;;3.13;1.50;;;5.30;99.90;;;;;;4969157;28;20027;-80
2023/12/09 06:46:12;;;;;;;2.50;1.30;;;5.30;99.90;;;;;;4971462;28;20510;-79
2023/12/09 06:48:38;;;;;;;2.47;1.38;;;5.30;99.90;;;;;;4978412;28;20109;-79
2023/12/09 06:51:07;;;;;;;3.95;1.73;;;5.30;99.90;;;;;;4968464;28;20440;-81
2023/12/09 06:53:32;;;;;;;4.25;1.73;;;5.20;99.90;;;;;;4978240;28;20034;-83
2023/12/09 06:55:58;;;;;;;6.22;1.50;;;5.30;99.90;;;;;;4975646;28;20045;-82
2023/12/09 06:58:24;;;;;;;2.80;1.73;;;5.30;99.90;;;;;;4975236;28;20026;-82
2023/12/09 07:00:50;;;;;;;2.70;1.38;;;5.30;99.90;;;;;;4976628;28;20031;-82
2023/12/09 07:03:16;;;;;;;5.88;1.75;;;5.40;99.90;;;;;;4978849;28;20029;-82
2023/12/09 07:05:41;;;;;;;4.80;1.88;;;5.30;99.90;;;;;;4973944;28;20467;-81
2023/12/09 07:08:10;;;;;;;3.60;1.80;;;5.40;99.90;;;;;;4974623;28;20035;-80
2023/12/09 07:10:36;;;;;;;4.45;1.70;;;5.40;99.90;;;;;;4969136;28;20027;-82
2023/12/09 07:13:02;;;;;;;4.05;1.70;;;5.40;99.90;;;;;;4983584;28;20038;-82
2023/12/09 07:15:27;;;;;;;4.72;1.70;;;5.40;99.90;;;;;;4974565;28;20038;-81
2023/12/09 07:17:53;;;;;;;5.00;2.13;;;5.40;99.90;;;;;;4974976;28;20027;-81
2023/12/09 07:20:18;;;;;;;3.40;2.15;;;5.40;99.90;;;;;;4978561;28;20030;-81
2023/12/09 07:22:44;;;;;;;5.65;2.40;;;5.40;99.90;;;;;;4969418;28;20038;-81
2023/12/09 07:25:10;;;;;;;8.82;3.08;;;5.40;99.90;;;;;;4974906;28;20102;-80
2023/12/09 07:27:35;;;;;;;4.50;2.05;;;5.40;99.90;;;;;;4982118;28;20085;-81
2023/12/09 07:30:01;;;;;;;6.03;2.58;;;5.40;99.90;;;;;;4982686;28;20175;-81
2023/12/09 07:32:27;;;;;;;4.43;2.38;;;5.50;99.90;;;;;;4997107;28;20023;-81
2023/12/09 07:34:52;;;;;;;4.82;2.05;;;5.40;99.90;;;;;;5002995;28;20021;-81
2023/12/09 07:37:18;;;;;;;5.60;2.33;;;5.50;99.90;;;;;;5004749;28;20026;-81
2023/12/09 07:39:43;;;;;;;4.78;2.30;;;5.50;99.90;;;;;;4996387;28;20026;-81
2023/12/09 07:42:09;;;;;;;5.57;1.95;;;5.50;99.90;;;;;;4986846;28;20114;-81
2023/12/09 07:44:35;;;;;;;4.80;2.55;;;5.50;99.90;;;;;;4975943;28;20030;-80
2023/12/09 07:47:01;;;;;;;5.15;2.35;;;5.60;99.90;;;;;;4979059;28;20035;-80
2023/12/09 07:49:27;;;;;;;6.38;2.47;;;5.60;99.90;;;;;;4980675;28;20047;-80
2023/12/09 07:51:53;;;;;;;4.47;2.45;;;5.60;99.90;;;;;;4977607;28;20031;-80
2023/12/09 07:54:19;;;;;;;4.70;2.22;;;5.60;99.90;;;;;;4974643;28;20041;-81
2023/12/09 07:56:45;;;;;;;3.63;1.80;;;5.60;99.90;;;;;;4975928;28;20026;-80
2023/12/09 07:59:10;;;;;;;5.43;2.40;;;5.60;99.90;;;;;;4980490;28;20531;-81
2023/12/09 08:01:36;;;;;;;7.20;2.33;;;5.60;99.90;;;;;;4977613;28;20522;-80
2023/12/09 08:04:02;;;;;;;5.45;2.13;;;5.60;99.90;;;;;;4978566;28;20023;-81
2023/12/09 08:06:27;;;;;;;5.28;2.40;;;5.60;99.90;;;;;;4978743;28;20216;-81
2023/12/09 08:08:53;;;;;;;5.15;2.08;;;5.70;99.90;;;;;;4976795;28;20055;-81
2023/12/09 08:11:19;;;;;;;2.85;1.77;;;5.70;99.90;;;;;;4980447;28;20038;-81
2023/12/09 08:13:44;;;;;;;7.32;2.20;;;5.70;99.90;;;;;;4978231;28;20082;-79
2023/12/09 08:16:10;;;;;;;4.97;2.05;;;5.70;99.90;;;;;;4974238;28;20066;-79
2023/12/09 08:18:36;;;;;;;9.73;2.17;;;5.80;99.90;;;;;;4976829;28;20091;-80
2023/12/09 08:21:01;;;;;;;7.63;2.53;;;5.80;99.90;;;;;;4980448;28;20034;-80
2023/12/09 08:23:27;;;;;;;3.70;2.20;;;5.80;99.90;;;;;;4978332;28;20031;-81
2023/12/09 08:25:53;;;;;;;4.10;1.73;;;5.80;99.90;;;;;;4977208;28;20106;-79
2023/12/09 08:28:19;;;;;;;7.82;2.15;;;5.80;99.90;;;;;;4977233;28;20062;-80
2023/12/09 08:30:46;;;;;;;4.03;1.92;;;5.90;99.90;;;;;;4973064;28;20106;-80
2023/12/09 08:33:13;;;;;;;5.68;2.53;;;5.90;99.90;;;;;;4974954;28;20388;-81
2023/12/09 08:35:38;;;;;;;3.03;1.95;;;5.90;99.90;;;;;;4978411;28;20023;-80
2023/12/09 08:38:04;;;;;;;4.32;1.60;;;6.00;99.90;;;;;;4977206;28;20041;-80
2023/12/09 08:40:29;;;;;;;3.45;2.10;;;6.00;99.90;;;;;;4975298;28;20022;-80
2023/12/09 08:42:55;;;;;;;3.80;1.90;;;6.00;99.90;;;;;;4971990;28;20070;-79
2023/12/09 08:45:21;;;;;;;10.10;2.30;;;6.00;99.90;;;;;;4978194;28;20132;-81
2023/12/09 08:47:46;;;;;;;3.30;1.83;;;6.00;99.90;;;;;;4976588;28;20035;-81
2023/12/09 08:50:12;;;;;;;2.95;1.65;;;6.10;99.90;;;;;;4971451;28;20459;-80
2023/12/09 08:52:39;;;;;;;4.15;1.85;;;6.10;99.90;;;;;;4976546;28;20511;-81
2023/12/09 08:55:05;;;;;;;3.05;1.48;;;6.10;99.90;;;;;;4976826;28;20476;-80
2023/12/09 08:57:31;;;;;;;3.30;2.28;;;6.10;99.90;;;;;;4972071;28;20522;-80
2023/12/09 08:59:56;;;;;;;3.40;1.60;;;6.20;99.90;;;;;;4978280;28;20019;-80
2023/12/09 09:02:22;;;;;;;2.75;1.27;;;6.20;99.90;;;;;;4974842;28;20027;-81
2023/12/09 09:04:48;;;;;;;3.22;1.55;;;6.20;99.90;;;;;;4983649;28;20075;-80
2023/12/09 09:07:14;;;;;;;2.85;1.27;;;6.20;99.90;;;;;;4974557;28;20382;-81
2023/12/09 09:09:39;;;;;;;2.05;1.17;;;6.20;99.90;;;;;;4977195;28;20022;-80
2023/12/09 09:12:08;;;;;;;3.92;2.00;;;6.30;99.90;;;;;;4976990;28;20125;-80
2023/12/09 09:14:36;;;;;;;3.63;1.55;;;6.30;99.90;;;;;;4979723;28;20026;-80
2023/12/09 09:17:04;;;;;;;2.67;1.42;;;6.30;99.90;;;;;;4979108;28;20030;-79
2023/12/09 09:19:30;;;;;;;3.20;1.70;;;6.40;99.90;;;;;;4976437;28;20571;-80
2023/12/09 09:21:56;;;;;;;2.50;1.75;;;6.40;99.90;;;;;;4972965;28;20384;-80
2023/12/09 09:24:21;;;;;;;3.30;1.70;;;6.40;99.90;;;;;;4975958;28;20015;-80
2023/12/09 09:26:47;;;;;;;3.13;1.80;;;6.50;99.90;;;;;;4975457;28;20364;-80
2023/12/09 09:29:13;;;;;;;3.38;1.75;;;6.50;99.90;;;;;;4976553;28;20114;-81
2023/12/09 09:31:38;;;;;;;4.13;1.92;;;6.60;99.90;;;;;;4978103;28;20030;-79
2023/12/09 09:34:04;;;;;;;3.17;1.98;;;6.60;99.90;;;;;;4974284;28;20038;-80
2023/12/09 09:36:30;;;;;;;2.45;1.52;;;6.70;99.90;;;;;;4973236;28;20023;-80
2023/12/09 09:38:56;;;;;;;2.85;1.60;;;6.70;99.90;;;;;;4978573;28;20022;-80
2023/12/09 09:41:31;;;;;;;3.58;2.30;;;6.80;99.90;;;;;;4973263;28;20053;-80
2023/12/09 09:44:01;;;;;;;2.30;1.23;;;6.80;99.90;;;;;;4976009;28;20573;-80
2023/12/09 09:46:29;;;;;;;4.05;1.70;;;6.90;99.90;;;;;;4974723;28;20027;-81
2023/12/09 09:48:55;;;;;;;3.63;1.65;;;6.90;99.90;;;;;;4977705;28;20034;-80
2023/12/09 09:51:26;;;;;;;4.40;2.15;;;6.90;99.90;;;;;;4972655;28;20023;-80
2023/12/09 09:54:19;;;;;;;4.35;2.25;;;6.90;99.90;;;;;;4975373;28;20031;-80
2023/12/09 09:56:45;;;;;;;5.50;2.33;;;7.00;99.90;;;;;;4973000;28;20038;-80
2023/12/09 09:59:11;;;;;;;7.50;2.70;;;7.00;99.90;;;;;;4977969;28;20029;-81
2023/12/09 10:01:37;;;;;;;4.05;2.17;;;7.00;99.90;;;;;;4977342;28;20039;-80
2023/12/09 10:04:03;;;;;;;5.07;2.55;;;7.00;99.90;;;;;;4973284;28;20039;-80
2023/12/09 10:06:29;;;;;;;4.22;2.33;;;7.00;99.90;;;;;;4976013;28;20033;-80
2023/12/09 10:08:57;;;;;;;5.18;2.65;;;7.00;99.90;;;;;;4973562;28;20034;-80
2023/12/09 10:11:22;;;;;;;3.88;2.55;;;7.00;99.90;;;;;;4973751;28;20034;-80
2023/12/09 10:13:48;;;;;;;5.32;2.60;;;7.10;99.90;;;;;;4973325;28;20087;-81
2023/12/09 10:16:14;;;;;;;6.07;3.28;;;7.10;99.90;;;;;;4973929;28;21117;-80
2023/12/09 10:18:46;;;;;;;4.43;2.53;;;7.10;99.90;;;;;;4970358;28;20023;-81
2023/12/09 10:21:13;;;;;;;5.90;3.20;;;7.20;99.90;;;;;;4973279;28;20115;-80
2023/12/09 10:23:39;;;;;;;4.28;2.53;;;7.30;99.90;;;;;;4973353;28;20019;-80
2023/12/09 10:26:05;;;;;;;5.57;3.00;;;7.30;99.90;;;;;;4976069;28;20588;-80
2023/12/09 10:28:31;;;;;;;4.88;2.83;;;7.30;99.90;;;;;;4976193;28;20034;-80
2023/12/09 10:30:57;;;;;;;5.07;2.83;;;7.40;99.90;;;;;;4973159;28;20034;-79
2023/12/09 10:33:23;;;;;;;3.75;2.28;;;7.40;99.90;;;;;;4971363;28;20023;-79
2023/12/09 10:35:50;;;;;;;3.90;2.30;;;7.40;99.90;;;;;;4974396;28;20031;-79
2023/12/09 10:38:16;;;;;;;4.72;2.83;;;7.40;99.90;;;;;;4977475;28;20031;-79
2023/12/09 10:40:42;;;;;;;5.38;2.83;;;7.40;99.90;;;;;;4977247;28;20518;-80
2023/12/09 10:43:07;;;;;;;4.55;2.78;;;7.40;99.90;;;;;;4975830;28;20376;-80
2023/12/09 10:45:33;;;;;;;4.55;2.65;;;7.40;99.90;;;;;;4975136;28;20043;-79
2023/12/09 10:47:59;;;;;;;7.93;2.95;;;7.50;99.90;;;;;;4973785;28;20038;-80
2023/12/09 10:50:25;;;;;;;6.45;2.90;;;7.50;99.90;;;;;;4980088;28;20023;-79
2023/12/09 10:52:50;;;;;;;4.22;2.33;;;7.50;99.90;;;;;;4975211;28;20092;-80
2023/12/09 10:55:16;;;;;;;4.47;2.58;;;7.50;99.90;;;;;;4971678;28;20038;-80
2023/12/09 10:57:43;;;;;;;4.60;2.92;;;7.50;99.90;;;;;;4983384;28;20030;-79
2023/12/09 11:00:10;;;;;;;5.75;3.00;;;7.50;99.90;;;;;;4973003;28;20034;-79
2023/12/09 11:02:40;;;;;;;4.88;2.97;;;7.50;99.90;;;;;;4978972;28;20023;-79
2023/12/09 11:05:12;;;;;;;6.18;3.30;;;7.50;99.90;;;;;;4968175;28;20054;-79
2023/12/09 11:07:40;;;;;;;5.90;2.72;;;7.60;99.90;;;;;;4969785;28;20452;-80
2023/12/09 11:10:09;;;;;;;6.18;2.97;;;7.60;99.90;;;;;;4973777;28;20530;-80
2023/12/09 11:12:37;;;;;;;4.72;2.80;;;7.60;99.90;;;;;;4974969;28;20031;-80
2023/12/09 11:15:16;;;;;;;5.43;3.10;;;7.60;99.90;;;;;;4976468;28;20027;-80
2023/12/09 11:17:47;;;;;;;8.82;4.97;;;7.60;99.90;;;;;;4979228;28;20102;-81
2023/12/09 11:20:15;;;;;;;5.20;2.72;;;7.60;99.90;;;;;;4978721;28;20034;-80
2023/12/09 11:22:43;;;;;;;6.90;2.88;;;7.60;99.90;;;;;;4980598;28;20598;-80
2023/12/09 11:25:12;;;;;;;4.55;2.80;;;7.60;99.90;;;;;;4978337;28;20042;-81
2023/12/09 11:27:38;;;;;;;5.75;2.63;;;7.70;99.90;;;;;;4981247;28;20754;-81
2023/12/09 11:30:05;;;;;;;3.85;2.42;;;7.70;99.90;;;;;;4978064;28;20034;-80
2023/12/09 11:32:31;;;;;;;5.18;3.15;;;7.70;99.90;;;;;;4976051;28;20029;-80
2023/12/09 11:34:57;;;;;;;5.18;2.50;;;7.60;99.90;;;;;;4973850;28;20083;-80
2023/12/09 11:37:27;;;;;;;4.35;2.63;;;7.70;99.90;;;;;;4976942;28;20065;-80
2023/12/09 11:39:56;;;;;;;5.40;2.63;;;7.60;99.90;;;;;;4977934;28;20023;-80
2023/12/09 11:42:22;;;;;;;4.88;2.70;;;7.60;99.90;;;;;;4973608;28;20034;-79
2023/12/09 11:44:48;;;;;;;4.15;2.08;;;7.60;99.90;;;;;;4976715;28;20022;-79
2023/12/09 11:47:14;;;;;;;4.63;2.60;;;7.60;99.90;;;;;;4975607;28;20064;-79
2023/12/09 11:49:40;;;;;;;3.17;2.08;;;7.60;99.90;;;;;;4975646;28;20023;-80
2023/12/09 11:52:07;;;;;;;4.95;2.55;;;7.60;99.90;;;;;;4976951;28;20130;-80
2023/12/09 11:54:33;;;;;;;5.65;2.35;;;7.60;99.90;;;;;;4976965;28;20383;-80
2023/12/09 11:56:59;;;;;;;4.72;2.42;;;7.60;99.90;;;;;;4979253;28;20023;-80
2023/12/09 11:59:25;;;;;;;5.00;2.47;;;7.60;99.90;;;;;;4979968;28;20015;-80
2023/12/09 12:01:51;;;;;;;4.00;2.08;;;7.60;99.90;;;;;;4985097;28;20026;-81
2023/12/09 12:04:17;;;;;;;6.53;2.53;;;7.60;99.90;;;;;;4979837;28;20380;-79
2023/12/09 12:06:42;;;;;;;5.05;3.15;;;7.60;99.90;;;;;;4978822;28;20035;-80
2023/12/09 12:09:09;;;;;;;7.88;3.58;;;7.60;99.90;;;;;;4976068;28;20034;-80
2023/12/09 12:11:35;;;;;;;3.97;2.40;;;7.60;99.90;;;;;;4980914;28;20215;-81
2023/12/09 12:14:00;;;;;;;4.90;2.72;;;7.70;99.90;;;;;;4981291;28;20733;-81
2023/12/09 12:16:26;;;;;;;4.80;2.38;;;7.70;99.90;;;;;;4978762;28;20483;-79
2023/12/09 12:18:55;;;;;;;6.63;3.22;;;7.70;99.90;;;;;;4981891;28;20429;-81
2023/12/09 12:21:20;;;;;;;6.05;2.85;;;7.70;99.90;;;;;;4984832;28;20438;-80
2023/12/09 12:23:51;;;;;;;5.50;2.90;;;7.70;99.90;;;;;;4974486;28;20058;-80
2023/12/09 12:26:17;;;;;;;5.25;2.70;;;7.70;99.90;;;;;;4975258;28;20446;-81
2023/12/09 12:28:47;;;;;;;4.38;2.50;;;7.70;99.90;;;;;;4974593;28;20042;-80
2023/12/09 12:31:13;;;;;;;4.18;2.53;;;7.70;99.90;;;;;;4977634;28;20054;-80
2023/12/09 12:33:39;;;;;;;6.68;2.67;;;7.80;99.90;;;;;;4978469;28;20031;-79
2023/12/09 12:36:05;;;;;;;6.43;2.75;;;7.80;99.90;;;;;;4978855;28;20163;-80
2023/12/09 12:38:32;;;;;;;5.78;2.80;;;7.80;99.90;;;;;;4975096;28;20500;-80
2023/12/09 12:40:58;;;;;;;6.55;2.55;;;7.80;99.90;;;;;;4977676;28;20456;-79
2023/12/09 12:43:28;;;;;;;4.57;2.28;;;7.80;99.90;;;;;;4975035;28;20026;-80
2023/12/09 12:45:57;;;;;;;7.20;4.38;;;7.80;99.90;;;;;;4974608;28;20054;-80
2023/12/09 12:48:23;;;;;;;5.93;2.38;;;7.80;99.90;;;;;;4993515;28;20049;-79
2023/12/09 12:50:49;;;;;;;4.72;2.90;;;7.90;99.90;;;;;;4979154;28;20106;-80